Time;durP1;ratioP1;P1;durP2;ratioP2;P2;SDS_P1;SDS_P2;PMS_P1;PMS_P2;Temp;Humidity;BMP_temperature;BMP_pressure;BME280_temperature;BME280_humidity;BME280_pressure;Samples;Min_cycle;Max_cycle;Signal;HPM_P1;HPM_P2
2021/11/24 00:00:39;;;;;;;14.73;6.95;;;10.00;99.90;;;;;;5095389;28;20213;-70
2021/11/24 00:03:05;;;;;;;13.57;6.93;;;10.00;99.90;;;;;;5083502;28;20273;-70
2021/11/24 00:05:31;;;;;;;11.65;6.80;;;10.00;99.90;;;;;;5102354;28;20281;-71
2021/11/24 00:07:57;;;;;;;12.30;7.38;;;9.90;99.90;;;;;;5094186;28;20248;-69
2021/11/24 00:10:23;;;;;;;13.55;7.47;;;9.90;99.90;;;;;;5091294;28;20194;-70
2021/11/24 00:12:48;;;;;;;17.23;8.20;;;9.90;99.90;;;;;;5099556;28;20186;-70
2021/11/24 00:15:14;;;;;;;14.10;8.15;;;9.90;99.90;;;;;;5103203;28;20679;-69
2021/11/24 00:17:40;;;;;;;14.55;9.27;;;9.90;99.90;;;;;;5096922;28;20654;-70
2021/11/24 00:20:07;;;;;;;16.70;9.30;;;9.90;99.90;;;;;;5101829;28;20181;-69
2021/11/24 00:22:34;;;;;;;13.18;9.15;;;9.90;99.90;;;;;;5096695;28;20193;-69
2021/11/24 00:25:00;;;;;;;15.40;9.70;;;9.90;99.90;;;;;;5099454;28;20189;-71
2021/11/24 00:27:25;;;;;;;15.10;10.13;;;9.90;99.90;;;;;;5103182;28;21367;-70
2021/11/24 00:29:53;;;;;;;13.80;9.38;;;9.90;99.90;;;;;;5103483;28;20174;-70
2021/11/24 00:32:20;;;;;;;14.43;10.30;;;9.90;99.90;;;;;;5085574;28;20181;-71
2021/11/24 00:34:46;;;;;;;14.57;10.73;;;9.80;99.90;;;;;;5105207;28;20572;-69
2021/11/24 00:37:11;;;;;;;13.88;10.27;;;9.80;99.90;;;;;;5103291;28;20205;-71
2021/11/24 00:39:37;;;;;;;18.67;11.13;;;9.80;99.90;;;;;;5105679;28;20692;-70
2021/11/24 00:42:03;;;;;;;15.75;10.82;;;9.80;99.90;;;;;;5102990;28;20223;-71
2021/11/24 00:44:29;;;;;;;15.82;11.23;;;9.80;99.90;;;;;;5099673;28;20189;-70
2021/11/24 00:46:54;;;;;;;15.43;11.93;;;9.80;99.90;;;;;;5101941;28;20181;-70
2021/11/24 00:49:20;;;;;;;20.45;11.70;;;9.80;99.90;;;;;;5102393;28;20173;-69
2021/11/24 00:51:46;;;;;;;20.13;12.00;;;9.80;99.90;;;;;;5104575;28;20269;-70
2021/11/24 00:54:12;;;;;;;16.67;12.57;;;9.80;99.90;;;;;;5083916;28;20300;-72
2021/11/24 00:56:38;;;;;;;21.38;13.05;;;9.80;99.90;;;;;;5083389;28;20185;-70
2021/11/24 00:59:06;;;;;;;19.42;12.93;;;9.80;99.90;;;;;;5096756;28;20261;-70
2021/11/24 01:01:32;;;;;;;20.92;13.18;;;9.80;99.90;;;;;;5102052;28;20650;-70
2021/11/24 01:03:58;;;;;;;19.40;12.85;;;9.80;99.90;;;;;;5083807;28;20255;-70
2021/11/24 01:06:24;;;;;;;18.67;11.80;;;9.80;99.90;;;;;;5102226;28;20257;-70
2021/11/24 01:08:50;;;;;;;17.63;12.82;;;9.80;99.90;;;;;;5103606;28;20268;-70
2021/11/24 01:11:16;;;;;;;18.08;13.15;;;9.80;99.90;;;;;;5069088;28;20189;-70
2021/11/24 01:13:43;;;;;;;19.00;13.38;;;9.80;99.90;;;;;;5083772;28;20280;-70
2021/11/24 01:16:09;;;;;;;17.60;12.05;;;9.80;99.90;;;;;;5103656;28;20192;-69
2021/11/24 01:18:35;;;;;;;20.70;13.55;;;9.80;99.90;;;;;;5101087;28;20693;-69
2021/11/24 01:21:01;;;;;;;20.77;12.13;;;9.80;99.90;;;;;;5093923;28;20197;-69
2021/11/24 01:23:26;;;;;;;21.67;12.00;;;9.80;99.90;;;;;;5079175;28;20193;-69
2021/11/24 01:25:52;;;;;;;18.30;12.85;;;9.80;99.90;;;;;;5091475;28;20177;-71
2021/11/24 01:28:18;;;;;;;15.50;11.07;;;9.80;99.90;;;;;;5080300;28;21956;-70
2021/11/24 01:30:43;;;;;;;16.98;11.15;;;9.80;99.90;;;;;;5104087;28;20181;-71
2021/11/24 01:33:09;;;;;;;17.38;10.85;;;9.80;99.90;;;;;;5098280;28;20191;-69
2021/11/24 01:35:35;;;;;;;18.60;10.63;;;9.80;99.90;;;;;;5103867;28;20273;-70
2021/11/24 01:38:00;;;;;;;15.93;10.60;;;9.80;99.90;;;;;;5104311;28;20300;-70
2021/11/24 01:40:26;;;;;;;16.70;10.95;;;9.80;99.90;;;;;;5101563;28;20190;-70
2021/11/24 01:42:52;;;;;;;16.90;11.13;;;9.80;99.90;;;;;;5100703;28;20723;-69
2021/11/24 01:45:20;;;;;;;16.45;10.80;;;9.80;99.90;;;;;;5105148;28;20193;-69
2021/11/24 01:47:46;;;;;;;15.25;10.55;;;9.80;99.90;;;;;;5101646;28;20208;-70
2021/11/24 01:50:13;;;;;;;17.92;10.48;;;9.80;99.90;;;;;;5087256;28;20668;-72
2021/11/24 01:52:39;;;;;;;15.13;10.63;;;9.80;99.90;;;;;;5101079;28;20596;-70
2021/11/24 01:55:07;;;;;;;15.65;10.65;;;9.80;99.90;;;;;;5080397;28;20200;-70
2021/11/24 01:57:33;;;;;;;15.85;10.63;;;9.80;99.90;;;;;;5102127;28;20363;-70
2021/11/24 01:59:58;;;;;;;14.48;10.10;;;9.80;99.90;;;;;;5101175;28;20264;-70
2021/11/24 02:02:26;;;;;;;19.50;10.32;;;9.80;99.90;;;;;;5082437;28;20274;-73
2021/11/24 02:04:52;;;;;;;15.65;10.00;;;9.70;99.90;;;;;;5103956;28;20173;-70
2021/11/24 02:07:17;;;;;;;15.07;10.30;;;9.70;99.90;;;;;;5083911;28;20193;-71
2021/11/24 02:09:44;;;;;;;15.02;10.77;;;9.70;99.90;;;;;;5098088;28;20181;-70
2021/11/24 02:12:12;;;;;;;17.85;9.73;;;9.70;99.90;;;;;;5076460;28;20197;-71
2021/11/24 02:14:38;;;;;;;20.30;10.35;;;9.70;99.90;;;;;;5103819;28;20221;-71
2021/11/24 02:17:05;;;;;;;17.88;10.88;;;9.70;99.90;;;;;;5082947;28;20197;-72
2021/11/24 02:19:32;;;;;;;16.20;11.20;;;9.70;99.90;;;;;;5102862;28;20853;-72
2021/11/24 02:21:59;;;;;;;19.60;11.35;;;9.70;99.90;;;;;;5095425;28;20272;-70
2021/11/24 02:24:28;;;;;;;17.13;10.77;;;9.70;99.90;;;;;;5102701;28;20263;-70
2021/11/24 02:26:54;;;;;;;18.15;10.05;;;9.70;99.90;;;;;;5097318;28;20177;-70
2021/11/24 02:29:20;;;;;;;17.75;10.55;;;9.70;99.90;;;;;;5105269;28;20189;-70
2021/11/24 02:31:51;;;;;;;14.13;8.80;;;9.70;99.90;;;;;;5104758;28;20583;-69
2021/11/24 02:34:17;;;;;;;14.43;8.88;;;9.70;99.90;;;;;;5086607;28;20189;-70
2021/11/24 02:36:43;;;;;;;13.90;8.82;;;9.70;99.90;;;;;;5084639;28;20274;-71
2021/11/24 02:39:10;;;;;;;14.10;9.20;;;9.70;99.90;;;;;;5107005;28;20688;-71
2021/11/24 02:41:37;;;;;;;13.48;9.68;;;9.70;99.90;;;;;;5084250;28;20266;-70
2021/11/24 02:44:28;;;;;;;15.80;10.25;;;9.70;99.90;;;;;;5099776;28;20185;-69
2021/11/24 02:46:55;;;;;;;15.20;10.23;;;9.70;99.90;;;;;;5100479;28;20686;-68
2021/11/24 02:49:21;;;;;;;14.68;9.77;;;9.70;99.90;;;;;;5103023;28;20667;-69
2021/11/24 02:51:47;;;;;;;14.52;9.70;;;9.70;99.90;;;;;;5105194;28;20190;-69
2021/11/24 02:54:14;;;;;;;16.17;10.43;;;9.70;99.90;;;;;;5104138;28;20220;-69
2021/11/24 02:56:41;;;;;;;12.50;9.50;;;9.70;99.90;;;;;;5104021;28;20266;-71
2021/11/24 02:59:10;;;;;;;14.82;10.07;;;9.70;99.90;;;;;;5106920;28;20238;-70
2021/11/24 03:01:39;;;;;;;15.00;9.32;;;9.70;99.90;;;;;;5088249;28;20211;-69
2021/11/24 03:04:07;;;;;;;14.77;7.80;;;9.70;99.90;;;;;;5106099;28;20209;-70
2021/11/24 03:06:33;;;;;;;13.88;8.98;;;9.70;99.90;;;;;;5099234;28;20196;-69
2021/11/24 03:08:59;;;;;;;12.02;8.18;;;9.70;99.90;;;;;;5087661;28;20189;-69
2021/11/24 03:11:24;;;;;;;13.48;7.97;;;9.60;99.90;;;;;;5106065;28;20218;-69
2021/11/24 03:13:50;;;;;;;16.13;7.60;;;9.60;99.90;;;;;;5107097;28;20747;-69
2021/11/24 03:16:15;;;;;;;12.25;7.57;;;9.60;99.90;;;;;;5105051;28;20212;-72
2021/11/24 03:18:41;;;;;;;11.07;6.90;;;9.60;99.90;;;;;;5104020;28;20325;-71
2021/11/24 03:21:07;;;;;;;12.35;7.10;;;9.60;99.90;;;;;;5096835;28;20272;-71
2021/11/24 03:23:32;;;;;;;12.25;7.50;;;9.60;99.90;;;;;;5101003;28;20204;-71
2021/11/24 03:25:58;;;;;;;20.02;7.65;;;9.60;99.90;;;;;;5083261;28;20192;-70
2021/11/24 03:28:24;;;;;;;12.13;7.85;;;9.60;99.90;;;;;;5104852;28;20553;-69
2021/11/24 03:30:49;;;;;;;11.63;7.50;;;9.60;99.90;;;;;;5106104;28;20280;-68
2021/11/24 03:33:16;;;;;;;13.02;7.65;;;9.60;99.90;;;;;;5104006;28;22431;-69
2021/11/24 03:35:41;;;;;;;11.75;7.95;;;9.50;99.90;;;;;;5088799;28;20212;-69
2021/11/24 03:38:08;;;;;;;15.60;8.48;;;9.60;99.90;;;;;;5101716;28;20267;-70
2021/11/24 03:40:35;;;;;;;13.90;8.40;;;9.60;99.90;;;;;;5102679;28;20261;-70
2021/11/24 03:43:01;;;;;;;16.38;9.07;;;9.60;99.90;;;;;;5103952;28;20253;-70
2021/11/24 03:45:31;;;;;;;12.65;8.15;;;9.60;99.90;;;;;;5082983;28;20186;-69
2021/11/24 03:47:58;;;;;;;15.73;9.18;;;9.60;99.90;;;;;;5102670;28;20257;-70
2021/11/24 03:50:24;;;;;;;16.98;9.00;;;9.60;99.90;;;;;;5106042;28;20550;-69
2021/11/24 03:52:50;;;;;;;12.15;8.52;;;9.60;99.90;;;;;;5083424;28;20185;-71
2021/11/24 03:55:17;;;;;;;12.35;8.38;;;9.60;99.90;;;;;;5102228;28;20188;-69
2021/11/24 03:57:44;;;;;;;14.95;8.90;;;9.50;99.90;;;;;;5105194;28;20295;-68
2021/11/24 04:00:15;;;;;;;12.77;8.70;;;9.50;99.90;;;;;;5102571;28;20266;-70
2021/11/24 04:02:40;;;;;;;13.43;8.57;;;9.50;99.90;;;;;;5103830;28;20268;-70
2021/11/24 04:05:08;;;;;;;13.07;8.93;;;9.60;99.90;;;;;;5080987;28;20253;-69
2021/11/24 04:07:34;;;;;;;18.33;8.80;;;9.50;99.90;;;;;;5102109;28;20322;-70
2021/11/24 04:10:01;;;;;;;12.18;8.80;;;9.50;99.90;;;;;;5096459;28;22075;-70
2021/11/24 04:12:26;;;;;;;16.27;9.35;;;9.50;99.90;;;;;;5102652;28;20318;-71
2021/11/24 04:14:52;;;;;;;15.10;8.98;;;9.50;99.90;;;;;;5106267;28;21031;-71
2021/11/24 04:17:17;;;;;;;17.33;8.82;;;9.50;99.90;;;;;;5101101;28;20212;-70
2021/11/24 04:19:43;;;;;;;13.02;9.13;;;9.50;99.90;;;;;;5106515;28;20181;-72
2021/11/24 04:22:09;;;;;;;12.63;9.48;;;9.50;99.90;;;;;;5098410;28;20536;-70
2021/11/24 04:24:35;;;;;;;15.63;9.30;;;9.50;99.90;;;;;;5105178;28;20165;-71
2021/11/24 04:27:01;;;;;;;15.88;9.20;;;9.50;99.90;;;;;;5087249;28;20193;-71
2021/11/24 04:29:27;;;;;;;22.92;10.18;;;9.50;99.90;;;;;;5101618;28;20289;-71
2021/11/24 04:31:52;;;;;;;15.55;9.38;;;9.50;99.90;;;;;;5104607;28;20215;-70
2021/11/24 04:34:18;;;;;;;13.50;9.55;;;9.50;99.90;;;;;;5105841;28;20187;-71
2021/11/24 04:36:44;;;;;;;14.68;10.07;;;9.50;99.90;;;;;;5101932;28;20192;-70
2021/11/24 04:39:10;;;;;;;18.40;9.75;;;9.50;99.90;;;;;;5105095;28;20296;-71
2021/11/24 04:41:36;;;;;;;15.05;10.02;;;9.50;99.90;;;;;;5103864;28;20185;-71
2021/11/24 04:44:03;;;;;;;15.00;10.32;;;9.50;99.90;;;;;;5086191;28;20189;-71
2021/11/24 04:46:29;;;;;;;16.90;11.30;;;9.50;99.90;;;;;;5101512;28;20181;-70
2021/11/24 04:48:55;;;;;;;16.27;10.02;;;9.50;99.90;;;;;;5086785;28;20199;-74
2021/11/24 04:51:20;;;;;;;20.80;10.50;;;9.50;99.90;;;;;;5101360;28;20192;-70
2021/11/24 04:53:47;;;;;;;19.63;10.95;;;9.40;99.90;;;;;;5098687;28;20258;-72
2021/11/24 04:56:12;;;;;;;13.45;10.25;;;9.40;99.90;;;;;;5103429;28;20680;-70
2021/11/24 04:58:52;;;;;;;18.25;11.27;;;9.40;99.90;;;;;;5103981;28;20220;-71
2021/11/24 05:01:19;;;;;;;15.32;10.55;;;9.40;99.90;;;;;;5084153;28;20185;-71
2021/11/24 05:03:44;;;;;;;18.10;10.38;;;9.40;99.90;;;;;;5097768;28;20189;-70
2021/11/24 05:06:11;;;;;;;17.58;10.07;;;9.40;99.90;;;;;;5105602;28;20196;-71
2021/11/24 05:08:37;;;;;;;18.10;9.70;;;9.40;99.90;;;;;;5103108;28;20194;-71
2021/11/24 05:11:03;;;;;;;16.67;9.95;;;9.40;99.90;;;;;;5104826;28;20219;-70
2021/11/24 05:13:29;;;;;;;19.60;11.02;;;9.40;99.90;;;;;;5100176;28;20349;-72
2021/11/24 05:16:01;;;;;;;26.40;10.80;;;9.40;99.90;;;;;;5104979;28;20184;-72
2021/11/24 05:18:36;;;;;;;14.68;10.90;;;9.40;99.90;;;;;;5083031;28;20899;-71
2021/11/24 05:21:06;;;;;;;17.65;11.52;;;9.40;99.90;;;;;;5098121;28;20288;-72
2021/11/24 05:23:36;;;;;;;21.52;12.80;;;9.40;99.90;;;;;;5100777;28;20173;-73
2021/11/24 05:26:06;;;;;;;21.65;12.88;;;9.30;99.90;;;;;;5087462;28;20224;-72
2021/11/24 05:28:32;;;;;;;22.50;13.18;;;9.30;99.90;;;;;;5101909;28;20541;-72
2021/11/24 05:30:59;;;;;;;22.27;13.73;;;9.30;99.90;;;;;;5105366;28;20556;-72
2021/11/24 05:33:25;;;;;;;22.52;14.00;;;9.20;99.90;;;;;;5096315;28;20198;-70
2021/11/24 05:35:50;;;;;;;21.08;14.90;;;9.20;99.90;;;;;;5105264;28;20189;-71
2021/11/24 05:38:16;;;;;;;23.00;15.02;;;9.20;99.90;;;;;;5082628;28;20233;-70
2021/11/24 05:40:42;;;;;;;28.55;15.98;;;9.20;99.90;;;;;;5097129;28;20760;-71
2021/11/24 05:43:07;;;;;;;27.30;15.57;;;9.10;99.90;;;;;;5085452;28;20644;-68
2021/11/24 05:48:06;;;;;;;21.75;15.32;;;9.10;99.90;;;;;;5100847;28;20193;-70
2021/11/24 05:50:31;;;;;;;25.95;18.67;;;9.10;99.90;;;;;;5095417;28;20441;-68
2021/11/24 05:52:57;;;;;;;25.63;18.57;;;9.60;99.90;;;;;;5100662;28;20466;-69
2021/11/24 05:55:24;;;;;;;24.70;18.30;;;9.90;99.90;;;;;;5101348;28;20424;-70
2021/11/24 05:57:49;;;;;;;24.80;17.33;;;10.10;99.90;;;;;;5092821;28;20413;-69
2021/11/24 06:00:16;;;;;;;23.02;17.23;;;10.30;99.90;;;;;;5101168;28;20748;-70
2021/11/24 06:02:43;;;;;;;23.63;17.55;;;10.40;99.90;;;;;;5101695;28;20949;-69
2021/11/24 06:05:09;;;;;;;21.20;17.02;;;10.40;99.90;;;;;;5076130;28;20459;-70
2021/11/24 06:07:35;;;;;;;22.17;16.55;;;10.50;99.90;;;;;;5102060;28;20422;-69
2021/11/24 06:10:06;;;;;;;25.10;16.27;;;10.60;99.90;;;;;;5106289;28;20753;-70
2021/11/24 06:12:32;;;;;;;23.20;16.17;;;10.60;99.90;;;;;;5099548;28;20965;-69
2021/11/24 06:14:58;;;;;;;22.50;16.63;;;10.70;99.90;;;;;;5087895;28;20412;-69
2021/11/24 06:17:23;;;;;;;21.53;16.23;;;10.70;99.90;;;;;;5099335;28;20461;-71
2021/11/24 06:19:49;;;;;;;22.77;16.60;;;10.70;99.90;;;;;;5104287;28;20414;-70
2021/11/24 06:22:15;;;;;;;22.00;16.87;;;10.70;99.90;;;;;;5099412;28;20414;-69
2021/11/24 06:24:40;;;;;;;26.55;17.33;;;10.80;99.90;;;;;;5100926;28;20500;-69
2021/11/24 06:27:06;;;;;;;24.60;17.00;;;10.80;99.90;;;;;;5100427;28;20406;-69
2021/11/24 06:29:32;;;;;;;24.83;16.55;;;10.70;99.90;;;;;;5100119;28;20870;-70
2021/11/24 06:31:58;;;;;;;22.80;16.73;;;10.70;99.90;;;;;;5080627;28;20407;-69
2021/11/24 06:34:24;;;;;;;23.75;17.10;;;10.80;99.90;;;;;;5086473;28;20491;-67
2021/11/24 06:36:53;;;;;;;22.25;15.90;;;10.80;99.90;;;;;;5077335;28;20608;-69
2021/11/24 06:39:22;;;;;;;24.08;15.90;;;10.80;99.90;;;;;;5083274;28;20424;-69
2021/11/24 06:41:48;;;;;;;24.23;16.63;;;10.80;99.90;;;;;;5086565;28;20427;-68
2021/11/24 06:44:14;;;;;;;21.67;15.02;;;10.80;99.90;;;;;;5087685;28;20459;-69
2021/11/24 06:46:40;;;;;;;22.30;15.57;;;10.70;99.90;;;;;;5083892;28;20427;-69
2021/11/24 06:49:05;;;;;;;22.67;16.08;;;10.70;99.90;;;;;;5099641;28;20988;-70
2021/11/24 06:51:31;;;;;;;22.73;15.50;;;10.70;99.90;;;;;;5107436;28;20442;-69
2021/11/24 06:53:57;;;;;;;21.98;16.35;;;10.70;99.90;;;;;;5101745;28;20408;-69
2021/11/24 06:56:23;;;;;;;24.42;16.58;;;10.70;99.90;;;;;;5100763;28;20512;-70
2021/11/24 06:58:48;;;;;;;25.55;16.88;;;10.70;99.90;;;;;;5101944;28;20825;-70
2021/11/24 07:01:14;;;;;;;23.57;17.83;;;10.70;99.90;;;;;;5104348;28;20410;-69
2021/11/24 07:03:40;;;;;;;26.05;17.58;;;10.70;99.90;;;;;;5105054;28;20413;-70
2021/11/24 07:06:06;;;;;;;27.47;17.77;;;10.70;99.90;;;;;;5107780;28;20765;-70
2021/11/24 07:08:31;;;;;;;30.02;18.98;;;10.70;99.90;;;;;;5106009;28;21194;-70
2021/11/24 07:10:57;;;;;;;26.27;18.20;;;10.70;99.90;;;;;;5097056;28;20404;-69
2021/11/24 07:13:22;;;;;;;26.37;18.53;;;10.60;99.90;;;;;;5103487;28;20434;-70
2021/11/24 07:15:48;;;;;;;30.30;19.65;;;10.60;99.90;;;;;;5106231;28;20472;-69
2021/11/24 07:18:14;;;;;;;27.60;18.97;;;10.60;99.90;;;;;;5095098;28;20421;-70
2021/11/24 07:20:39;;;;;;;26.63;19.45;;;10.60;99.90;;;;;;5100783;28;20472;-69
2021/11/24 07:23:05;;;;;;;27.63;19.67;;;10.70;99.90;;;;;;5107033;28;20396;-70
2021/11/24 07:25:32;;;;;;;29.17;19.63;;;10.70;99.90;;;;;;5105891;28;20396;-68
2021/11/24 07:27:58;;;;;;;28.30;20.10;;;10.70;99.90;;;;;;5107351;28;20502;-69
2021/11/24 07:30:24;;;;;;;29.23;21.08;;;10.70;99.90;;;;;;5105184;28;20472;-68
2021/11/24 07:32:49;;;;;;;31.13;21.57;;;10.60;99.90;;;;;;5104854;28;20832;-68
2021/11/24 07:35:15;;;;;;;30.98;21.88;;;10.70;99.90;;;;;;5086656;28;20450;-69
2021/11/24 07:37:41;;;;;;;32.30;22.60;;;10.60;99.90;;;;;;5084030;28;20476;-69
2021/11/24 07:40:08;;;;;;;34.58;23.05;;;10.60;99.90;;;;;;5102612;28;20429;-70
2021/11/24 07:42:34;;;;;;;34.63;24.05;;;10.70;99.90;;;;;;5104033;28;20438;-69
2021/11/24 07:45:00;;;;;;;32.33;23.55;;;10.70;99.90;;;;;;5104578;28;20432;-69
2021/11/24 07:47:26;;;;;;;38.43;24.73;;;10.70;99.90;;;;;;5104161;28;20514;-72
2021/11/24 07:49:51;;;;;;;37.55;24.42;;;10.70;99.90;;;;;;5102232;28;20421;-68
2021/11/24 07:52:17;;;;;;;35.20;24.87;;;10.70;99.90;;;;;;5103918;28;20503;-69
2021/11/24 07:54:43;;;;;;;38.78;24.60;;;10.70;99.90;;;;;;5082275;28;20773;-70
2021/11/24 07:57:09;;;;;;;36.35;25.35;;;10.70;99.90;;;;;;5083389;28;20408;-71
2021/11/24 07:59:36;;;;;;;33.72;24.77;;;10.70;99.90;;;;;;5106317;28;20408;-70
2021/11/24 08:02:02;;;;;;;38.00;25.95;;;10.70;99.90;;;;;;5105066;28;20412;-70
2021/11/24 08:04:28;;;;;;;38.30;25.35;;;10.80;99.90;;;;;;5103378;28;20471;-67
2021/11/24 08:06:59;;;;;;;35.45;25.63;;;10.80;99.90;;;;;;5103062;28;20397;-70
2021/11/24 08:09:25;;;;;;;39.97;26.65;;;10.80;99.90;;;;;;5098846;28;20498;-69
2021/11/24 08:11:50;;;;;;;39.78;28.30;;;10.70;99.90;;;;;;5104802;28;20499;-69
2021/11/24 08:14:16;;;;;;;37.78;27.17;;;10.70;99.90;;;;;;5105106;28;20942;-69
2021/11/24 08:16:42;;;;;;;40.77;27.97;;;10.70;99.90;;;;;;5103748;28;20409;-70
2021/11/24 08:19:07;;;;;;;42.60;27.85;;;10.80;99.90;;;;;;5103644;28;20416;-69
2021/11/24 08:21:33;;;;;;;43.17;27.93;;;10.80;99.90;;;;;;5098926;28;20470;-69
2021/11/24 08:23:59;;;;;;;41.03;29.48;;;10.80;99.90;;;;;;5098325;28;20768;-70
2021/11/24 08:26:25;;;;;;;42.50;29.63;;;10.80;99.90;;;;;;5097303;28;20403;-69
2021/11/24 08:28:51;;;;;;;43.80;30.40;;;10.80;99.90;;;;;;5104089;28;20445;-69
2021/11/24 08:31:17;;;;;;;44.30;29.77;;;10.80;99.90;;;;;;5079904;28;20412;-69
2021/11/24 08:33:43;;;;;;;44.43;31.73;;;10.80;99.90;;;;;;5098212;28;20406;-69
2021/11/24 08:36:11;;;;;;;44.45;31.60;;;10.80;99.90;;;;;;5078725;28;20447;-69
2021/11/24 08:38:37;;;;;;;43.50;31.40;;;10.80;99.90;;;;;;5090624;28;20417;-68
2021/11/24 08:41:03;;;;;;;44.17;30.80;;;10.80;99.90;;;;;;5099427;28;20474;-68
2021/11/24 08:43:29;;;;;;;44.88;30.85;;;10.90;99.90;;;;;;5104409;28;20431;-68
2021/11/24 08:45:55;;;;;;;43.83;31.03;;;10.90;99.90;;;;;;5099838;28;20445;-69
2021/11/24 08:48:22;;;;;;;44.90;31.90;;;10.90;99.90;;;;;;5103421;28;20881;-70
2021/11/24 08:50:47;;;;;;;42.40;31.17;;;10.90;99.90;;;;;;5102096;28;20408;-70
2021/11/24 08:53:13;;;;;;;46.40;31.45;;;10.90;99.90;;;;;;5076425;28;20417;-69
2021/11/24 08:55:39;;;;;;;46.47;31.37;;;10.90;99.90;;;;;;5070932;28;20489;-68
2021/11/24 08:58:05;;;;;;;43.88;28.75;;;11.00;99.90;;;;;;5080664;28;20639;-69
2021/11/24 09:00:31;;;;;;;39.13;27.00;;;10.60;99.90;;;;;;5099381;28;20563;-68
2021/11/24 09:02:56;;;;;;;40.13;26.25;;;10.30;99.90;;;;;;5101259;28;20218;-69
2021/11/24 09:05:22;;;;;;;47.40;26.05;;;10.20;99.90;;;;;;5106181;28;20196;-69
2021/11/24 09:07:49;;;;;;;38.42;24.20;;;10.00;99.90;;;;;;5087747;28;20189;-69
2021/11/24 09:10:16;;;;;;;45.42;25.08;;;10.00;99.90;;;;;;5105827;28;20193;-69
2021/11/24 09:12:42;;;;;;;41.45;25.25;;;9.80;99.90;;;;;;5105662;28;20188;-69
2021/11/24 09:15:08;;;;;;;45.90;25.83;;;9.80;99.90;;;;;;5105727;28;20193;-69
2021/11/24 09:17:33;;;;;;;39.67;23.77;;;9.80;99.90;;;;;;5098949;28;20213;-69
2021/11/24 09:19:59;;;;;;;43.30;27.05;;;9.80;99.90;;;;;;5086033;28;20619;-70
2021/11/24 09:22:25;;;;;;;43.28;24.58;;;9.80;99.90;;;;;;5066535;28;20264;-70
2021/11/24 09:24:57;;;;;;;41.35;24.48;;;9.90;99.90;;;;;;5097145;28;20192;-70
2021/11/24 09:27:35;;;;;;;33.78;23.63;;;10.10;99.90;;;;;;5100098;28;20268;-70
2021/11/24 09:30:04;;;;;;;29.67;19.80;;;10.30;99.90;;;;;;5101354;28;20190;-69
2021/11/24 09:32:30;;;;;;;30.85;20.67;;;10.30;99.90;;;;;;5102223;28;20232;-71
2021/11/24 09:34:56;;;;;;;35.45;21.33;;;10.30;99.90;;;;;;5097015;28;20213;-70
2021/11/24 09:37:22;;;;;;;30.85;20.05;;;10.30;99.90;;;;;;5085226;28;20243;-70
2021/11/24 09:39:48;;;;;;;33.28;20.30;;;10.30;99.90;;;;;;5089099;28;20221;-70
2021/11/24 09:42:16;;;;;;;31.83;20.25;;;10.20;99.90;;;;;;5084077;28;20249;-70
2021/11/24 09:44:45;;;;;;;36.33;20.52;;;10.20;99.90;;;;;;5102492;28;20912;-71
2021/11/24 09:47:12;;;;;;;36.20;19.17;;;10.10;99.90;;;;;;5106092;28;20185;-70
2021/11/24 09:49:39;;;;;;;29.25;18.73;;;10.10;99.90;;;;;;5108602;28;20202;-71
2021/11/24 09:52:07;;;;;;;28.33;18.77;;;10.10;99.90;;;;;;5105115;28;20185;-71
2021/11/24 09:54:33;;;;;;;29.13;19.42;;;10.10;99.90;;;;;;5100779;28;20190;-68
2021/11/24 09:56:59;;;;;;;31.60;19.23;;;10.00;99.90;;;;;;5064341;28;20186;-70
2021/11/24 09:59:25;;;;;;;31.35;19.20;;;10.00;99.90;;;;;;5107047;28;20205;-71
2021/11/24 10:01:51;;;;;;;30.42;18.88;;;10.00;99.90;;;;;;5070362;28;20218;-70
2021/11/24 10:04:17;;;;;;;29.00;18.23;;;10.00;99.90;;;;;;5071621;28;21594;-69
2021/11/24 10:06:43;;;;;;;28.38;18.55;;;10.00;99.90;;;;;;5099519;28;20194;-71
2021/11/24 10:09:10;;;;;;;26.13;17.90;;;10.00;99.90;;;;;;5085213;28;20185;-71
2021/11/24 10:11:36;;;;;;;25.50;17.63;;;10.00;99.90;;;;;;5103163;28;20292;-72
2021/11/24 10:14:03;;;;;;;29.55;16.55;;;10.00;99.90;;;;;;5107657;28;20245;-69
2021/11/24 10:16:31;;;;;;;25.23;15.98;;;10.10;99.90;;;;;;5102780;28;20645;-69
2021/11/24 10:18:59;;;;;;;25.67;15.63;;;10.00;99.90;;;;;;5097388;28;20213;-69
2021/11/24 10:21:25;;;;;;;25.52;14.90;;;10.00;99.90;;;;;;5097110;28;20642;-68
2021/11/24 10:23:52;;;;;;;20.90;14.85;;;10.00;99.90;;;;;;5105477;28;20185;-69
2021/11/24 10:26:22;;;;;;;24.88;14.77;;;10.10;99.90;;;;;;5109395;28;20277;-69
2021/11/24 10:29:18;;;;;;;24.70;15.13;;;10.10;99.90;;;;;;5094638;28;20196;-70
2021/11/24 10:31:53;;;;;;;23.30;14.35;;;10.10;99.90;;;;;;5085327;28;20236;-71
2021/11/24 10:34:35;;;;;;;25.88;14.45;;;10.10;99.90;;;;;;5106210;28;20194;-70
2021/11/24 10:37:16;;;;;;;21.38;14.35;;;10.10;99.90;;;;;;5090697;28;21000;-69
2021/11/24 10:39:42;;;;;;;22.85;14.05;;;10.10;99.90;;;;;;5108969;28;20667;-70
2021/11/24 10:42:16;;;;;;;23.48;14.40;;;10.10;99.90;;;;;;5084331;28;20226;-69
2021/11/24 10:44:50;;;;;;;21.65;13.88;;;10.20;99.90;;;;;;5081886;28;21781;-68
2021/11/24 10:47:17;;;;;;;19.92;13.23;;;10.20;99.90;;;;;;5087700;28;20185;-70
2021/11/24 10:49:46;;;;;;;19.92;13.10;;;10.30;99.90;;;;;;5086956;28;20181;-69
2021/11/24 10:52:17;;;;;;;19.65;12.02;;;10.30;99.90;;;;;;5088122;28;20230;-69
2021/11/24 10:54:54;;;;;;;19.35;12.40;;;10.30;99.90;;;;;;5085686;28;20208;-69
2021/11/24 10:57:20;;;;;;;18.92;13.18;;;10.30;99.90;;;;;;5084728;28;20218;-70
2021/11/24 10:59:46;;;;;;;18.33;12.23;;;10.40;99.90;;;;;;5086511;28;20232;-71
2021/11/24 11:02:22;;;;;;;18.65;12.40;;;10.40;99.90;;;;;;5078506;28;20236;-70
2021/11/24 11:05:10;;;;;;;19.08;12.40;;;10.40;99.90;;;;;;5100005;28;20293;-70
2021/11/24 11:07:58;;;;;;;19.98;13.00;;;10.40;99.90;;;;;;5087337;28;20654;-70
2021/11/24 11:10:31;;;;;;;19.98;13.18;;;10.40;99.90;;;;;;5085195;28;20234;-71
2021/11/24 11:13:04;;;;;;;22.80;13.23;;;10.40;99.90;;;;;;5087886;28;20264;-70
2021/11/24 11:15:39;;;;;;;23.17;13.65;;;10.50;99.90;;;;;;5087054;28;20182;-70
2021/11/24 11:18:15;;;;;;;21.67;14.32;;;10.50;99.90;;;;;;5085109;28;20213;-70
2021/11/24 11:21:05;;;;;;;22.50;14.02;;;10.50;99.90;;;;;;5084160;28;20650;-69
2021/11/24 11:23:34;;;;;;;21.15;13.60;;;10.50;99.90;;;;;;5082825;28;20603;-69
2021/11/24 11:26:02;;;;;;;18.67;13.05;;;10.50;99.90;;;;;;5084101;28;20548;-69
2021/11/24 11:28:34;;;;;;;25.42;12.88;;;10.50;99.90;;;;;;5079752;28;20559;-70
2021/11/24 11:31:02;;;;;;;20.25;11.90;;;10.60;99.90;;;;;;5078000;28;20205;-69
2021/11/24 11:33:33;;;;;;;20.02;12.45;;;10.60;99.90;;;;;;5079045;28;20185;-69
2021/11/24 11:36:03;;;;;;;17.58;11.70;;;10.50;99.90;;;;;;5098620;28;20216;-69
2021/11/24 11:38:29;;;;;;;16.70;10.82;;;10.50;99.90;;;;;;5083982;28;20209;-69
2021/11/24 11:40:55;;;;;;;15.85;9.90;;;10.50;99.90;;;;;;5084831;28;20194;-70
2021/11/24 11:43:22;;;;;;;14.98;10.25;;;10.50;99.90;;;;;;5097738;28;20295;-68
2021/11/24 11:45:48;;;;;;;15.30;9.65;;;10.60;99.90;;;;;;5083340;28;20241;-68
2021/11/24 11:48:25;;;;;;;15.80;9.10;;;10.60;99.90;;;;;;5099687;28;20596;-69
2021/11/24 11:50:56;;;;;;;15.25;8.73;;;10.60;99.90;;;;;;5101999;28;20272;-70
2021/11/24 11:53:38;;;;;;;13.35;8.80;;;10.60;99.90;;;;;;5097511;28;20232;-68
2021/11/24 11:56:10;;;;;;;16.53;10.00;;;10.70;99.90;;;;;;5100875;28;20884;-69
2021/11/24 11:59:08;;;;;;;16.20;10.30;;;11.30;98.10;;;;;;5100118;28;20424;-68
2021/11/24 12:01:51;;;;;;;12.50;9.23;;;11.80;97.10;;;;;;5100374;28;20929;-69
2021/11/24 12:04:21;;;;;;;14.43;9.70;;;12.00;95.90;;;;;;5084068;28;21026;-69
2021/11/24 12:06:53;;;;;;;11.85;8.85;;;12.20;95.60;;;;;;5103082;28;20275;-70
2021/11/24 12:09:20;;;;;;;13.40;8.95;;;11.80;96.40;;;;;;5099279;28;20193;-69
2021/11/24 12:12:04;;;;;;;13.65;8.63;;;11.50;97.00;;;;;;5085925;28;20185;-69
2021/11/24 12:14:49;;;;;;;14.88;9.13;;;11.40;97.30;;;;;;5098781;28;20220;-69
2021/11/24 12:17:33;;;;;;;14.85;9.38;;;11.20;97.60;;;;;;5097616;28;20197;-70
2021/11/24 12:20:30;;;;;;;15.88;8.63;;;11.20;97.90;;;;;;5103990;28;20224;-69
2021/11/24 12:22:59;;;;;;;;;;;11.40;98.30;;;;;;5097016;28;20499;-69
2021/11/24 12:25:38;;;;;;;;;;;11.50;98.20;;;;;;5105973;28;20364;-70
2021/11/24 12:28:07;;;;;;;;;;;11.60;97.80;;;;;;5104401;28;19934;-69
2021/11/24 12:30:47;;;;;;;;;;;11.50;97.40;;;;;;5102744;28;20345;-69
2021/11/24 12:33:26;;;;;;;;;;;11.50;97.40;;;;;;5084195;28;19911;-69
2021/11/24 12:35:55;;;;;;;;;;;11.40;97.60;;;;;;5084938;28;19944;-70
2021/11/24 12:38:22;;;;;;;;;;;11.30;97.70;;;;;;5103258;28;19915;-69
2021/11/24 12:40:50;;;;;;;16.60;9.25;;;11.20;97.80;;;;;;5106029;28;20296;-68